Time;durP1;ratioP1;P1;durP2;ratioP2;P2;SDS_P1;SDS_P2;PMS_P1;PMS_P2;Temp;Humidity;BMP_temperature;BMP_pressure;BME280_temperature;BME280_humidity;BME280_pressure;Samples;Min_cycle;Max_cycle;Signal;HPM_P1;HPM_P2
2023/07/27 00:00:05;;;;;;;9.07;2.55;;;;;;;26.95;49.60;100943.91;4938884;28;20059;-78
2023/07/27 00:02:32;;;;;;;11.80;3.00;;;;;;;26.61;50.13;100982.59;4956771;28;20050;-78
2023/07/27 00:04:59;;;;;;;11.98;2.40;;;;;;;26.27;51.29;100969.69;4950080;28;20080;-80
2023/07/27 00:07:26;;;;;;;16.98;2.63;;;;;;;25.75;52.10;100930.19;4968631;28;20061;-79
2023/07/27 00:09:53;;;;;;;4.15;1.90;;;;;;;26.55;50.50;100959.00;4982847;28;20060;-78
2023/07/27 00:12:24;;;;;;;14.40;2.55;;;;;;;26.67;50.39;100974.53;4948182;28;20116;-80
2023/07/27 00:14:57;;;;;;;12.02;2.22;;;;;;;26.85;50.53;100969.00;4940615;28;20454;-80
2023/07/27 00:17:28;;;;;;;6.38;2.22;;;;;;;26.72;50.32;100977.38;4925254;28;20050;-81
2023/07/27 00:19:55;;;;;;;8.98;2.88;;;;;;;26.76;50.32;100959.53;4963332;28;20310;-79
2023/07/27 00:22:22;;;;;;;6.55;2.15;;;;;;;27.09;49.54;100969.84;4944373;28;20117;-80
2023/07/27 00:24:52;;;;;;;6.97;2.40;;;;;;;26.82;49.64;100934.06;4939897;28;20781;-79
2023/07/27 00:27:28;;;;;;;8.45;2.70;;;;;;;27.13;49.61;100957.38;4905544;28;20468;-80
2023/07/27 00:29:56;;;;;;;5.65;1.80;;;;;;;26.80;49.77;100968.88;4927490;28;20549;-79
2023/07/27 00:32:27;;;;;;;11.13;2.55;;;;;;;26.67;50.23;100952.75;4951692;28;20116;-80
2023/07/27 00:34:54;;;;;;;5.50;2.08;;;;;;;26.88;49.62;100954.91;4971942;28;20058;-81
2023/07/27 00:37:20;;;;;;;8.18;2.53;;;;;;;26.67;49.49;100898.31;4955697;28;20061;-80
2023/07/27 00:39:47;;;;;;;8.68;2.38;;;;;;;26.94;49.60;100974.91;4946436;28;20503;-80
2023/07/27 00:42:14;;;;;;;9.48;2.28;;;;;;;26.58;49.88;100920.44;4951185;28;20039;-80
2023/07/27 00:44:41;;;;;;;5.85;2.30;;;;;;;27.14;49.32;100977.28;4958121;28;20053;-78
2023/07/27 00:47:08;;;;;;;6.13;1.85;;;;;;;26.99;49.84;100975.91;4942206;28;20129;-76
2023/07/27 00:49:35;;;;;;;7.97;1.98;;;;;;;27.18;49.21;100964.84;4953667;28;20047;-79
2023/07/27 00:52:06;;;;;;;7.45;2.10;;;;;;;27.29;49.20;100991.31;4943444;28;20078;-78
2023/07/27 00:54:35;;;;;;;5.40;1.98;;;;;;;27.10;49.46;100987.03;4961575;28;20061;-78
2023/07/27 00:57:06;;;;;;;5.53;1.90;;;;;;;27.26;49.09;100980.91;4936550;28;20422;-78
2023/07/27 00:59:33;;;;;;;6.38;1.90;;;;;;;26.91;49.03;100938.09;4942729;28;20046;-78
2023/07/27 01:02:00;;;;;;;12.98;1.98;;;;;;;26.47;49.51;100932.09;4928860;28;20062;-79
2023/07/27 01:04:27;;;;;;;8.05;2.10;;;;;;;27.10;48.58;100952.41;4940606;28;20047;-80
2023/07/27 01:06:54;;;;;;;7.13;1.98;;;;;;;27.30;48.56;100970.34;4961193;28;20054;-78
2023/07/27 01:09:23;;;;;;;6.78;1.95;;;;;;;27.31;48.56;100981.00;4992492;28;20054;-78
2023/07/27 01:12:20;;;;;;;9.25;1.88;;;;;;;26.91;48.71;100919.03;4983702;28;20472;-78
2023/07/27 01:15:06;;;;;;;6.07;2.03;;;;;;;26.60;49.25;100915.59;4958410;28;20058;-80
2023/07/27 01:17:47;;;;;;;6.05;2.08;;;;;;;27.18;49.15;100989.38;4988694;28;20765;-78
2023/07/27 01:20:36;;;;;;;7.22;2.47;;;;;;;27.04;49.15;100994.22;4982160;28;20485;-78
2023/07/27 01:23:32;;;;;;;11.32;2.08;;;;;;;27.20;49.33;100990.00;4972460;28;20195;-78
2023/07/27 01:26:37;;;;;;;6.13;2.05;;;;;;;27.26;48.97;100989.91;4955216;28;20075;-78
2023/07/27 01:29:41;;;;;;;6.70;1.95;;;;;;;27.28;48.86;100976.00;4984345;28;20081;-78
2023/07/27 01:32:10;;;;;;;10.88;2.63;;;;;;;27.31;48.91;100981.00;4989789;28;20054;-79
2023/07/27 01:34:42;;;;;;;9.25;2.13;;;;;;;27.05;49.31;100980.38;4947929;28;20058;-78
2023/07/27 01:37:13;;;;;;;11.48;2.28;;;;;;;26.84;49.76;100991.84;4912249;28;20468;-78
2023/07/27 01:39:43;;;;;;;9.60;2.50;;;;;;;26.52;50.80;100983.13;4927328;28;20055;-77
2023/07/27 01:42:15;;;;;;;4.70;1.77;;;;;;;26.66;50.79;100967.44;4916343;28;20146;-79
2023/07/27 01:44:42;;;;;;;10.10;2.65;;;;;;;27.06;49.49;100968.44;4943922;28;20057;-80
2023/07/27 01:47:13;;;;;;;8.82;2.25;;;;;;;26.70;49.85;100968.63;4933131;28;20050;-79
2023/07/27 01:49:46;;;;;;;13.50;2.25;;;;;;;26.84;50.12;100965.44;4952810;28;20402;-79
2023/07/27 01:52:15;;;;;;;12.38;2.40;;;;;;;26.49;50.78;100940.88;4948990;28;20176;-78
2023/07/27 01:54:48;;;;;;;5.15;1.83;;;;;;;26.76;50.02;100935.00;4939022;28;20109;-80
2023/07/27 01:57:19;;;;;;;4.53;1.63;;;;;;;26.91;49.85;100962.59;4948221;28;20078;-78
2023/07/27 01:59:49;;;;;;;9.90;2.03;;;;;;;26.73;49.87;100913.72;4968748;28;20345;-80
2023/07/27 02:02:21;;;;;;;16.30;3.25;;;;;;;26.88;50.02;100979.44;4935251;28;20063;-79
2023/07/27 02:04:48;;;;;;;11.15;2.53;;;;;;;26.97;50.22;100986.19;4921936;28;20082;-78
2023/07/27 02:07:18;;;;;;;7.75;2.00;;;;;;;27.03;50.11;100979.78;4969511;28;20050;-78
2023/07/27 02:09:45;;;;;;;13.63;2.67;;;;;;;27.15;49.86;100992.59;4960669;28;20342;-79
2023/07/27 02:12:23;;;;;;;8.85;2.30;;;;;;;26.48;50.12;100901.06;4986895;28;20054;-80
2023/07/27 02:15:04;;;;;;;21.70;3.17;;;;;;;26.77;50.23;100978.34;4929663;28;20052;-81
2023/07/27 02:17:39;;;;;;;7.80;2.63;;;;;;;26.03;51.22;100917.91;4947896;28;20068;-80
2023/07/27 02:20:12;;;;;;;17.58;2.88;;;;;;;26.10;52.01;100992.09;4941570;28;20078;-78
2023/07/27 02:22:43;;;;;;;15.43;4.05;;;;;;;25.52;52.83;100981.69;4953018;28;20137;-79
2023/07/27 02:25:10;;;;;;;15.27;2.55;;;;;;;24.83;54.35;100987.13;4924365;28;20051;-78
2023/07/27 02:27:44;;;;;;;20.30;2.97;;;;;;;24.57;55.90;101009.06;4929630;28;20379;-79
2023/07/27 02:30:18;;;;;;;13.52;2.00;;;;;;;24.62;56.41;101001.06;4935733;28;20121;-78
2023/07/27 02:32:45;;;;;;;8.35;2.13;;;;;;;25.70;53.85;100989.81;4945429;28;20388;-79
2023/07/27 02:35:14;;;;;;;10.45;2.38;;;;;;;25.77;53.98;101009.63;4947875;28;20271;-79
2023/07/27 02:37:40;;;;;;;14.65;3.00;;;;;;;25.14;54.21;100990.81;4953303;28;20050;-78
2023/07/27 02:40:07;;;;;;;13.25;2.65;;;;;;;24.75;55.00;100984.69;4942717;28;20065;-78
2023/07/27 02:42:34;;;;;;;18.83;3.53;;;;;;;24.57;56.12;101015.31;4947412;28;20229;-80
2023/07/27 02:45:01;;;;;;;13.60;3.08;;;;;;;24.83;56.43;100987.13;4946749;28;20534;-79
2023/07/27 02:47:31;;;;;;;14.35;3.08;;;;;;;25.17;55.34;100993.09;4950752;28;20521;-77
2023/07/27 02:49:58;;;;;;;7.93;2.42;;;;;;;25.50;54.74;100991.97;4960656;28;20094;-78
2023/07/27 02:52:32;;;;;;;16.67;2.42;;;;;;;26.60;51.84;101008.16;4953221;28;20121;-79
2023/07/27 02:54:59;;;;;;;14.85;3.08;;;;;;;26.39;51.71;100989.59;4944797;28;20752;-79
2023/07/27 02:57:32;;;;;;;12.15;3.22;;;;;;;26.36;52.45;100995.50;4944537;28;20055;-78
2023/07/27 02:59:59;;;;;;;17.60;3.30;;;;;;;25.60;52.75;100978.66;4954396;28;20051;-77
2023/07/27 03:02:25;;;;;;;14.15;2.92;;;;;;;25.91;53.45;100988.56;4943926;28;20395;-80
2023/07/27 03:04:53;;;;;;;9.57;2.30;;;;;;;26.34;52.82;101013.97;4947895;28;20059;-80
2023/07/27 03:07:20;;;;;;;14.27;2.88;;;;;;;26.11;53.44;101018.22;4962311;28;20437;-80
2023/07/27 03:09:51;;;;;;;14.95;2.70;;;;;;;26.56;52.07;101001.50;4952910;28;20104;-81
2023/07/27 03:12:21;;;;;;;9.30;2.38;;;;;;;26.71;51.58;101005.69;4968459;28;20058;-80
2023/07/27 03:14:48;;;;;;;11.23;2.53;;;;;;;26.74;51.32;101008.75;4949248;28;20388;-80
2023/07/27 03:17:15;;;;;;;15.13;2.35;;;;;;;26.91;51.25;101022.53;4947129;28;20397;-80
2023/07/27 03:19:42;;;;;;;12.73;2.85;;;;;;;27.15;50.69;101020.66;4944124;28;20477;-78
2023/07/27 03:22:09;;;;;;;13.00;2.30;;;;;;;27.14;50.53;101026.34;4939763;28;20342;-78
2023/07/27 03:24:39;;;;;;;10.63;2.75;;;;;;;27.22;50.37;101026.03;4945875;28;20047;-80
2023/07/27 03:27:06;;;;;;;11.20;2.28;;;;;;;27.09;50.43;101029.78;4946574;28;20419;-78
2023/07/27 03:29:35;;;;;;;12.35;3.05;;;;;;;26.29;51.35;101013.81;4947311;28;20077;-79
2023/07/27 03:32:06;;;;;;;12.10;3.08;;;;;;;25.73;53.21;101024.75;4949267;28;20051;-81
2023/07/27 03:34:33;;;;;;;25.55;3.28;;;;;;;25.66;53.08;101039.47;4944668;28;20082;-79
2023/07/27 03:37:00;;;;;;;18.58;2.80;;;;;;;25.41;54.10;101042.22;4945605;28;20053;-79
2023/07/27 03:39:27;;;;;;;9.73;2.33;;;;;;;25.01;55.02;101015.41;4931452;28;20082;-79
2023/07/27 03:41:54;;;;;;;11.65;3.05;;;;;;;26.16;53.22;101039.31;4944653;28;20043;-77
2023/07/27 03:44:21;;;;;;;11.75;2.65;;;;;;;26.14;52.47;101028.69;4935043;28;20717;-80
2023/07/27 03:46:47;;;;;;;8.13;2.35;;;;;;;26.47;51.81;101021.94;4944929;28;20055;-78
2023/07/27 03:49:18;;;;;;;11.68;3.03;;;;;;;26.71;51.50;101063.69;4930952;28;20814;-79
2023/07/27 03:51:44;;;;;;;15.13;2.58;;;;;;;26.04;52.74;101063.72;4945568;28;20194;-77
2023/07/27 03:54:13;;;;;;;11.90;2.67;;;;;;;26.28;52.44;101039.38;4938015;28;20051;-78
2023/07/27 03:56:40;;;;;;;15.90;3.63;;;;;;;25.91;52.84;101028.53;4946130;28;20051;-79
2023/07/27 03:59:06;;;;;;;11.02;2.72;;;;;;;25.35;53.68;101063.81;4934602;28;20200;-80
2023/07/27 04:01:33;;;;;;;17.83;3.53;;;;;;;25.08;54.96;101081.38;4929866;28;20073;-80
2023/07/27 04:04:01;;;;;;;19.13;3.38;;;;;;;24.53;55.96;101043.91;4944943;28;20054;-80
2023/07/27 04:06:28;;;;;;;7.72;2.47;;;;;;;24.82;56.28;101077.78;4955976;28;20052;-79
2023/07/27 04:08:56;;;;;;;13.32;3.05;;;;;;;25.06;55.17;101064.44;4984023;28;20054;-80
2023/07/27 04:11:23;;;;;;;19.00;3.55;;;;;;;25.00;55.14;101073.47;4966871;28;20050;-79
2023/07/27 04:13:50;;;;;;;13.93;3.45;;;;;;;24.69;55.56;101094.97;4975006;28;20145;-79
2023/07/27 04:16:19;;;;;;;15.98;4.28;;;;;;;24.16;56.83;101086.25;4947614;28;20332;-80
2023/07/27 04:18:49;;;;;;;9.63;2.95;;;;;;;24.15;57.93;101095.41;4938794;28;20058;-79
2023/07/27 04:21:15;;;;;;;13.82;3.08;;;;;;;23.92;58.13;101055.25;4937773;28;20038;-77
2023/07/27 04:23:44;;;;;;;10.13;2.50;;;;;;;24.35;57.34;101088.03;4947302;28;20220;-79
2023/07/27 04:26:11;;;;;;;14.48;2.80;;;;;;;24.41;57.61;101081.72;4968941;28;20482;-80
2023/07/27 04:28:38;;;;;;;12.27;3.65;;;;;;;24.03;57.25;101052.69;4945428;28;20050;-79
2023/07/27 04:31:04;;;;;;;11.60;2.85;;;;;;;24.22;57.97;101050.94;4953554;28;20422;-80
2023/07/27 04:33:31;;;;;;;12.32;2.83;;;;;;;25.57;54.91;101079.69;4959308;28;20052;-80
2023/07/27 04:36:01;;;;;;;17.30;3.92;;;;;;;24.88;55.33;101049.75;4964732;28;20046;-79
2023/07/27 04:38:30;;;;;;;20.80;3.35;;;;;;;25.42;55.65;101092.81;4946332;28;20061;-81
2023/07/27 04:40:58;;;;;;;19.55;4.22;;;;;;;25.28;54.52;101084.75;4962611;28;20046;-81
2023/07/27 04:43:25;;;;;;;13.93;2.80;;;;;;;25.68;54.50;101078.13;4960880;28;20058;-80
2023/07/27 04:45:52;;;;;;;16.48;2.70;;;;;;;26.33;52.51;101086.59;4949674;28;20413;-79
2023/07/27 04:48:19;;;;;;;10.25;3.00;;;;;;;26.64;51.85;101091.03;4958520;28;20087;-78
2023/07/27 04:50:47;;;;;;;13.98;2.88;;;;;;;26.01;52.25;101064.19;4965361;28;20295;-78
2023/07/27 04:53:13;;;;;;;12.65;3.17;;;;;;;25.71;52.56;101097.53;4954054;28;20050;-80
2023/07/27 04:55:40;;;;;;;13.00;3.55;;;;;;;24.94;54.23;101086.88;4975350;28;20272;-79
2023/07/27 04:58:07;;;;;;;13.77;3.45;;;;;;;24.78;55.80;101113.72;4952118;28;20070;-78
2023/07/27 05:00:34;;;;;;;11.20;3.00;;;;;;;24.41;56.56;101102.63;4944207;28;20386;-79
2023/07/27 05:03:01;;;;;;;9.25;3.80;;;;;;;24.06;56.89;101106.50;4938123;28;20323;-79
2023/07/27 05:05:28;;;;;;;7.57;2.85;;;;;;;24.17;57.53;101077.03;4950219;28;20046;-79
2023/07/27 05:07:55;;;;;;;15.57;3.00;;;;;;;25.28;54.88;101073.91;4985156;28;20446;-76
2023/07/27 05:10:23;;;;;;;9.50;2.78;;;;;;;25.82;53.32;101076.09;4920915;28;20575;-78
2023/07/27 05:12:50;;;;;;;10.43;3.25;;;;;;;26.31;52.14;101088.75;4936590;28;20705;-78
2023/07/27 05:15:17;;;;;;;8.80;2.78;;;;;;;26.43;51.82;101099.66;4949530;28;20609;-78
2023/07/27 05:17:43;;;;;;;13.52;3.17;;;;;;;26.61;51.05;101110.56;4955445;28;20050;-79
2023/07/27 05:20:10;;;;;;;14.45;3.08;;;;;;;26.26;52.12;101114.97;4958619;28;20054;-78
2023/07/27 05:22:37;;;;;;;21.20;4.00;;;;;;;25.78;52.55;101120.06;4959434;28;20457;-77
2023/07/27 05:25:04;;;;;;;12.68;4.13;;;;;;;24.69;54.02;101042.59;4951816;28;20058;-77
2023/07/27 05:27:34;;;;;;;16.23;3.85;;;;;;;24.64;54.77;101107.56;4946963;28;20046;-79
2023/07/27 05:30:02;;;;;;;11.40;2.83;;;;;;;24.79;56.52;101127.09;4977541;28;20340;-79
2023/07/27 05:32:29;;;;;;;10.68;2.85;;;;;;;25.67;54.29;101139.81;4946314;28;20054;-78
2023/07/27 05:34:59;;;;;;;14.80;3.35;;;;;;;26.05;52.76;101108.94;4980583;28;20058;-77
2023/07/27 05:37:26;;;;;;;19.05;4.20;;;;;;;25.92;52.25;101149.88;4959995;28;20043;-77
2023/07/27 05:39:53;;;;;;;11.02;3.17;;;;;;;25.24;53.76;101105.28;4960589;28;20521;-78
2023/07/27 05:42:20;;;;;;;13.35;3.40;;;;;;;25.08;54.35;101146.56;4960437;28;20477;-78
2023/07/27 05:44:47;;;;;;;11.05;3.38;;;;;;;25.32;54.27;101110.44;4944576;28;20535;-78
2023/07/27 05:47:14;;;;;;;8.93;3.13;;;;;;;26.11;53.38;101156.16;4961008;28;20053;-77
2023/07/27 05:49:41;;;;;;;5.40;2.20;;;;;;;26.76;51.37;101155.59;4953416;28;20068;-79
2023/07/27 05:52:08;;;;;;;7.18;2.50;;;;;;;26.13;52.00;101137.72;4963461;28;20414;-79
2023/07/27 05:54:34;;;;;;;13.10;3.80;;;;;;;25.66;52.46;101140.88;4965989;28;20050;-80
2023/07/27 05:57:01;;;;;;;12.93;3.30;;;;;;;26.21;52.41;101127.38;4960716;28;20058;-77
2023/07/27 05:59:28;;;;;;;7.82;2.30;;;;;;;26.14;51.63;101099.41;4947258;28;20408;-79
2023/07/27 06:01:55;;;;;;;13.02;3.33;;;;;;;25.99;52.00;101153.34;4945466;28;20050;-78
2023/07/27 06:04:27;;;;;;;14.20;3.30;;;;;;;25.75;52.74;101145.00;4937259;28;20055;-80
2023/07/27 06:06:57;;;;;;;17.48;3.63;;;;;;;25.35;53.43;101147.22;4939361;28;20107;-78
2023/07/27 06:09:27;;;;;;;9.18;3.75;;;;;;;24.89;54.05;101149.16;4914598;28;20280;-79
2023/07/27 06:11:58;;;;;;;7.72;3.13;;;;;;;24.58;55.15;101139.09;4949559;28;20051;-80
2023/07/27 06:14:25;;;;;;;6.53;3.45;;;;;;;24.07;56.07;101113.59;4936948;28;20054;-78
2023/07/27 06:16:51;;;;;;;11.30;3.15;;;;;;;24.22;57.23;101126.06;4948638;28;20082;-78
2023/07/27 06:19:18;;;;;;;6.47;2.58;;;;;;;24.07;57.12;101105.44;4941082;28;20463;-78
2023/07/27 06:21:45;;;;;;;7.55;2.60;;;;;;;25.35;54.74;101131.75;4931622;28;20434;-79
2023/07/27 06:24:11;;;;;;;9.73;2.60;;;;;;;25.59;54.23;101157.25;4963086;28;20050;-80
2023/07/27 06:26:38;;;;;;;3.65;2.13;;;;;;;25.84;53.87;101166.44;4957230;28;20038;-78
2023/07/27 06:29:05;;;;;;;8.38;2.33;;;;;;;26.36;52.33;101169.69;4971886;28;20065;-79
2023/07/27 06:31:32;;;;;;;12.75;3.13;;;;;;;25.92;52.71;101158.03;4937201;28;20113;-79
2023/07/27 06:33:59;;;;;;;10.75;3.40;;;;;;;24.80;53.02;101068.19;4940371;28;20046;-78
2023/07/27 06:36:26;;;;;;;8.35;2.45;;;;;;;26.35;51.65;101152.53;4967830;28;20389;-80
2023/07/27 06:38:53;;;;;;;6.97;2.83;;;;;;;26.01;51.61;101162.94;4963641;28;20077;-79
2023/07/27 06:41:25;;;;;;;15.55;5.00;;;;;;;25.68;52.11;101157.81;4960150;28;20046;-78
2023/07/27 06:43:59;;;;;;;11.90;3.78;;;;;;;24.61;53.48;101102.53;4953215;28;20105;-78
2023/07/27 06:46:32;;;;;;;8.55;2.92;;;;;;;24.58;55.09;101171.66;4956239;28;20054;-78
2023/07/27 06:49:00;;;;;;;17.70;3.67;;;;;;;24.64;55.42;101167.28;4964011;28;20065;-76
2023/07/27 06:51:30;;;;;;;11.25;3.17;;;;;;;25.21;54.70;101189.94;4945557;28;20458;-79
2023/07/27 06:53:57;;;;;;;8.07;3.22;;;;;;;24.94;54.64;101195.50;4926401;28;20051;-78
2023/07/27 06:56:23;;;;;;;6.25;2.90;;;;;;;24.59;54.92;101199.63;4946866;28;20073;-77
2023/07/27 06:58:50;;;;;;;6.65;3.28;;;;;;;24.63;55.49;101180.00;4940548;28;20438;-76
2023/07/27 07:01:17;;;;;;;8.85;3.65;;;;;;;24.65;54.79;101185.22;4927590;28;20050;-79
2023/07/27 07:03:44;;;;;;;10.70;2.70;;;;;;;24.48;56.58;101179.44;4935343;28;20047;-78
2023/07/27 07:06:10;;;;;;;6.30;2.85;;;;;;;24.36;55.31;101156.69;4940062;28;20293;-76
2023/07/27 07:08:37;;;;;;;4.03;3.22;;;;;;;24.62;55.38;101197.34;4934164;28;20517;-77
2023/07/27 07:11:08;;;;;;;7.70;2.85;;;;;;;24.89;55.41;101160.03;4937261;28;20079;-80
2023/07/27 07:13:35;;;;;;;13.35;3.17;;;;;;;26.11;52.87;101184.19;4947367;28;20195;-79
2023/07/27 07:16:02;;;;;;;10.48;3.33;;;;;;;25.71;52.77;101170.97;4938285;28;20142;-77
2023/07/27 07:18:28;;;;;;;14.80;3.08;;;;;;;25.78;52.86;101179.88;4920790;28;20057;-78
2023/07/27 07:20:56;;;;;;;6.43;2.65;;;;;;;25.33;53.88;101157.47;4935471;28;20047;-78
2023/07/27 07:23:27;;;;;;;8.90;1.92;;;;;;;25.55;53.67;101141.59;4938693;28;20475;-79
2023/07/27 07:25:54;;;;;;;10.10;3.10;;;;;;;26.04;52.47;101175.25;4931183;28;20047;-78
2023/07/27 07:28:21;;;;;;;7.13;2.83;;;;;;;25.91;51.53;101146.31;4946793;28;20081;-76
2023/07/27 07:30:48;;;;;;;9.55;2.50;;;;;;;26.26;51.45;101142.16;4929788;28;20293;-77
2023/07/27 07:33:15;;;;;;;6.63;2.65;;;;;;;26.00;51.21;101179.50;4955935;28;20719;-79
2023/07/27 07:35:42;;;;;;;9.38;2.85;;;;;;;25.23;52.68;101144.38;4932508;28;20511;-77
2023/07/27 07:38:14;;;;;;;7.10;2.90;;;;;;;25.03;53.25;101155.34;4936803;28;20046;-79
2023/07/27 07:40:49;;;;;;;6.95;3.00;;;;;;;24.51;54.42;101168.13;4932116;28;20576;-79
2023/07/27 07:43:15;;;;;;;11.68;2.63;;;;;;;24.20;55.82;101161.56;4954295;28;20065;-79
2023/07/27 07:45:42;;;;;;;5.05;2.40;;;;;;;24.64;56.15;101161.84;4937765;28;20727;-76
2023/07/27 07:48:09;;;;;;;7.22;3.13;;;;;;;24.53;55.25;101156.03;4965344;28;20054;-79
2023/07/27 07:50:39;;;;;;;8.68;3.25;;;;;;;24.69;55.21;101165.56;4953680;28;20085;-79
2023/07/27 07:53:05;;;;;;;9.02;3.35;;;;;;;24.76;55.74;101168.25;4962412;28;20243;-80
2023/07/27 07:55:36;;;;;;;10.73;3.05;;;;;;;25.05;53.73;101157.84;4975169;28;20513;-79
2023/07/27 07:58:03;;;;;;;7.10;2.58;;;;;;;24.72;55.37;101132.53;4939059;28;20622;-80
2023/07/27 08:00:29;;;;;;;6.10;2.25;;;;;;;25.43;54.12;101159.69;4926277;28;20129;-79
2023/07/27 08:02:56;;;;;;;5.97;2.92;;;;;;;25.84;53.26;101171.88;4940078;28;20078;-80
2023/07/27 08:05:29;;;;;;;13.02;3.08;;;;;;;25.51;52.45;101167.56;4950419;28;20050;-78
2023/07/27 08:08:02;;;;;;;7.75;2.65;;;;;;;25.25;53.85;101164.00;4946127;28;20468;-79
2023/07/27 08:10:29;;;;;;;11.95;2.83;;;;;;;25.13;54.33;101165.75;4928902;28;20585;-79
2023/07/27 08:13:00;;;;;;;9.38;2.58;;;;;;;24.99;53.80;101164.16;4937152;28;20304;-80
2023/07/27 08:15:38;;;;;;;7.78;2.50;;;;;;;25.52;51.86;101163.81;4928161;28;20047;-82
2023/07/27 08:18:10;;;;;;;11.73;3.10;;;;;;;25.09;51.55;101105.56;4957888;28;20050;-80
2023/07/27 08:20:38;;;;;;;9.52;1.80;;;;;;;25.28;52.62;101133.69;4959633;28;20129;-79
2023/07/27 08:23:06;;;;;;;10.90;2.97;;;;;;;26.25;50.70;101157.69;4958881;28;20409;-80
2023/07/27 08:25:40;;;;;;;7.22;2.58;;;;;;;26.15;49.86;101160.94;4951913;28;20205;-79
2023/07/27 08:28:10;;;;;;;6.15;2.30;;;;;;;26.33;50.08;101138.31;4951317;28;20050;-80
2023/07/27 08:30:41;;;;;;;7.35;2.50;;;;;;;26.27;50.87;101113.91;4955403;28;20054;-80
2023/07/27 08:33:09;;;;;;;4.80;2.15;;;;;;;26.61;50.27;101151.41;4956851;28;20480;-81
2023/07/27 08:35:36;;;;;;;4.63;3.00;;;;;;;26.58;49.34;101168.19;4947406;28;20054;-79
2023/07/27 08:38:06;;;;;;;7.80;2.60;;;;;;;26.11;50.37;101183.38;4960788;28;20050;-80
2023/07/27 08:40:34;;;;;;;8.57;2.35;;;;;;;26.23;51.10;101162.50;4942057;28;20054;-81
2023/07/27 08:43:07;;;;;;;5.35;2.33;;;;;;;26.23;50.76;101127.94;4925974;28;20224;-81
2023/07/27 08:45:40;;;;;;;8.98;2.15;;;;;;;26.46;50.75;101148.22;4948965;28;20046;-80
2023/07/27 08:48:13;;;;;;;3.35;2.08;;;;;;;26.81;50.20;101159.28;4958465;28;20050;-80
2023/07/27 08:50:42;;;;;;;3.45;1.55;;;;;;;26.79;49.73;101138.78;4960704;28;20585;-79
2023/07/27 08:53:16;;;;;;;8.02;2.00;;;;;;;26.86;49.80;101164.03;4940990;28;20055;-79
2023/07/27 08:55:45;;;;;;;7.33;2.23;;;;;;;26.64;48.56;101084.75;4947142;28;20054;-80
2023/07/27 08:58:14;;;;;;;7.63;2.17;;;;;;;27.05;49.24;101151.22;4949182;28;20514;-81
2023/07/27 09:00:42;;;;;;;10.57;3.10;;;;;;;26.62;48.71;101081.44;4942920;28;20138;-80
2023/07/27 09:03:13;;;;;;;5.57;2.03;;;;;;;27.12;48.53;101124.69;4926942;28;20153;-81
2023/07/27 09:05:45;;;;;;;8.60;2.30;;;;;;;27.28;48.03;101142.28;4938630;28;20054;-79
2023/07/27 09:08:14;;;;;;;6.47;2.28;;;;;;;26.63;48.52;101028.66;4938833;28;20071;-80
2023/07/27 09:10:43;;;;;;;3.45;1.95;;;;;;;27.36;47.96;101141.13;4939851;28;20072;-79
2023/07/27 09:13:11;;;;;;;5.53;1.92;;;;;;;27.11;48.56;101130.34;4915333;28;20253;-81
2023/07/27 09:15:44;;;;;;;11.35;2.10;;;;;;;27.17;47.92;101115.81;4943374;28;20194;-79
2023/07/27 09:18:15;;;;;;;6.50;2.05;;;;;;;26.96;46.21;101126.19;4964864;28;20060;-80
2023/07/27 09:20:42;;;;;;;7.53;2.75;;;;;;;27.12;47.32;101132.88;4945611;28;20518;-80
2023/07/27 09:23:18;;;;;;;8.20;2.25;;;;;;;26.64;47.56;101035.75;4946045;28;20417;-80
2023/07/27 09:25:55;;;;;;;4.90;1.90;;;;;;;27.27;47.10;101132.44;4959199;28;20046;-80
2023/07/27 09:28:26;;;;;;;5.93;1.80;;;;;;;26.96;46.98;101109.81;4934095;28;20056;-80
2023/07/27 09:31:02;;;;;;;6.30;1.95;;;;;;;27.01;45.89;101123.59;4960607;28;20128;-80
2023/07/27 09:33:32;;;;;;;3.30;1.95;;;;;;;27.24;46.35;101119.28;4935345;28;20051;-78
2023/07/27 09:36:01;;;;;;;5.72;1.77;;;;;;;27.21;46.32;101126.06;4946232;28;20050;-80
2023/07/27 09:38:30;;;;;;;8.70;2.30;;;;;;;26.82;45.06;101078.41;4962234;28;20537;-79
2023/07/27 09:40:57;;;;;;;6.78;2.10;;;;;;;27.27;46.68;101127.81;4947472;28;20144;-77
2023/07/27 09:43:24;;;;;;;2.67;1.77;;;;;;;26.88;46.12;101035.81;4973888;28;20060;-78
2023/07/27 09:46:02;;;;;;;3.97;1.77;;;;;;;27.21;45.56;101096.06;4958113;28;20066;-78
2023/07/27 09:48:39;;;;;;;8.68;2.40;;;;;;;27.36;46.31;101092.06;4933339;28;20259;-80
2023/07/27 09:51:20;;;;;;;12.85;2.38;;;;;;;27.26;45.09;101081.75;4941404;28;20061;-81
2023/07/27 09:53:50;;;;;;;3.03;1.67;;;;;;;27.49;45.69;101109.00;4930752;28;20137;-79
2023/07/27 09:56:17;;;;;;;10.07;2.40;;;;;;;27.02;45.89;101046.25;4928917;28;20054;-78
2023/07/27 09:58:51;;;;;;;9.82;2.47;;;;;;;27.46;45.85;101114.94;4938276;28;20254;-78
2023/07/27 10:01:19;;;;;;;10.15;2.83;;;;;;;27.42;44.84;101102.00;4949887;28;20058;-78
2023/07/27 10:03:50;;;;;;;4.60;2.20;;;;;;;27.55;45.53;101098.19;4910417;28;20055;-80
2023/07/27 10:06:17;;;;;;;6.20;2.50;;;;;;;27.72;45.21;101107.34;4950844;28;20050;-79
2023/07/27 10:08:45;;;;;;;16.92;2.65;;;;;;;27.38;44.43;101068.94;4958241;28;20402;-81
2023/07/27 10:11:12;;;;;;;7.75;2.92;;;;;;;27.58;44.85;101073.22;4963130;28;20303;-80
2023/07/27 10:13:41;;;;;;;7.70;2.03;;;;;;;27.63;43.79;101081.50;4931562;28;20273;-79
2023/07/27 10:16:10;;;;;;;9.25;2.42;;;;;;;27.84;45.03;101088.25;4971310;28;20881;-78
2023/07/27 10:18:46;;;;;;;10.98;2.40;;;;;;;27.81;44.58;101036.88;4936915;28;20108;-79
2023/07/27 10:21:28;;;;;;;6.68;2.45;;;;;;;27.92;45.04;101086.00;4970225;28;20069;-75
2023/07/27 10:24:04;;;;;;;6.20;2.55;;;;;;;27.89;45.21;101094.66;4953899;28;20054;-79
2023/07/27 10:26:49;;;;;;;5.68;1.77;;;;;;;27.94;44.85;101088.50;4960800;28;20146;-79
2023/07/27 10:29:23;;;;;;;5.10;2.20;;;;;;;27.31;44.59;100981.00;4960638;28;20112;-79
2023/07/27 10:32:05;;;;;;;3.88;2.53;;;;;;;27.89;44.61;101070.13;4940564;28;20551;-77
2023/07/27 10:34:34;;;;;;;13.77;2.85;;;;;;;27.72;45.05;101063.72;4926048;28;20066;-79
2023/07/27 10:37:11;;;;;;;9.02;2.15;;;;;;;27.95;42.67;101068.31;4932797;28;20358;-79
2023/07/27 10:39:47;;;;;;;;;;;;;;;28.10;44.22;101073.25;4930629;28;20144;-78
2023/07/27 10:42:25;;;;;;;6.90;2.35;;;;;;;28.34;43.54;101050.25;4951320;28;20252;-78
2023/07/27 10:45:01;;;;;;;8.20;2.70;;;;;;;28.10;42.81;101068.63;4946363;28;20108;-81
2023/07/27 10:47:37;;;;;;;6.63;2.80;;;;;;;28.17;41.96;101054.84;4933944;28;20047;-76
2023/07/27 10:50:05;;;;;;;6.05;2.47;;;;;;;28.51;43.27;101063.16;4950289;28;20152;-78
2023/07/27 10:52:39;;;;;;;5.25;2.67;;;;;;;28.68;42.74;101061.28;4919309;28;20054;-78
2023/07/27 10:55:08;;;;;;;6.78;2.58;;;;;;;28.42;43.47;101037.28;4930215;28;20128;-78
2023/07/27 10:57:35;;;;;;;4.78;2.33;;;;;;;28.43;43.05;101053.44;4925256;28;20573;-81
2023/07/27 11:00:04;;;;;;;3.83;2.08;;;;;;;28.20;43.66;101040.69;4934671;28;20114;-78
2023/07/27 11:02:32;;;;;;;8.80;3.08;;;;;;;28.44;43.50;101054.25;4935385;28;20339;-79
2023/07/27 11:05:05;;;;;;;13.13;3.20;;;;;;;28.15;43.47;101029.69;4964313;28;20339;-79
2023/07/27 11:07:42;;;;;;;6.97;2.30;;;;;;;28.39;43.08;101043.25;4930092;28;20066;-79
2023/07/27 11:10:13;;;;;;;6.78;2.53;;;;;;;28.38;41.51;101017.84;4961638;28;20418;-80
2023/07/27 11:12:48;;;;;;;5.63;2.15;;;;;;;28.67;40.76;101020.59;4961008;28;20510;-80
2023/07/27 11:15:19;;;;;;;5.65;2.25;;;;;;;29.05;42.79;101032.66;4943657;28;20062;-81
2023/07/27 11:17:45;;;;;;;;;;;;;;;29.21;42.75;101042.81;4970175;28;20833;-79
2023/07/27 11:20:13;;;;;;;4.43;2.25;;;;;;;29.10;42.01;101032.78;4959810;28;19922;-78
2023/07/27 11:22:40;;;;;;;9.98;3.00;;;;;;;29.00;40.20;101027.94;4943263;28;20053;-79
2023/07/27 11:25:09;;;;;;;6.70;2.42;;;;;;;29.27;42.44;101019.91;4958742;28;20414;-80
2023/07/27 11:27:40;;;;;;;10.98;2.85;;;;;;;28.92;41.87;100977.28;4960886;28;20501;-79
2023/07/27 11:30:16;;;;;;;4.83;2.27;;;;;;;29.03;42.13;101027.47;4950083;28;20208;-80
2023/07/27 11:32:56;;;;;;;4.50;2.33;;;;;;;28.40;41.08;100955.66;4962942;28;20509;-78